sensor_id;sensor_type;location;lat;lon;timestamp;pressure;altitude;pressure_sealevel;temperature;humidity
41690;BME280;27372;42.658;23.256;2023-04-29T00:00:33;93825.56;;;5.98;62.44
41690;BME280;27372;42.658;23.256;2023-04-29T00:02:58;93842.50;;;6.34;61.27
41690;BME280;27372;42.658;23.256;2023-04-29T00:05:25;93842.72;;;6.64;60.69
41690;BME280;27372;42.658;23.256;2023-04-29T00:07:51;93838.25;;;6.72;60.00
41690;BME280;27372;42.658;23.256;2023-04-29T00:10:17;93836.50;;;6.65;60.63
41690;BME280;27372;42.658;23.256;2023-04-29T00:12:42;93838.44;;;6.77;60.60
41690;BME280;27372;42.658;23.256;2023-04-29T00:15:08;93831.13;;;6.60;61.00
41690;BME280;27372;42.658;23.256;2023-04-29T00:17:34;93836.25;;;6.74;61.11
41690;BME280;27372;42.658;23.256;2023-04-29T00:19:59;93847.09;;;7.03;59.52
41690;BME280;27372;42.658;23.256;2023-04-29T00:22:25;93841.38;;;7.19;59.48
41690;BME280;27372;42.658;23.256;2023-04-29T00:24:50;93837.09;;;7.25;58.86
41690;BME280;27372;42.658;23.256;2023-04-29T00:27:17;93853.41;;;7.45;58.77
41690;BME280;27372;42.658;23.256;2023-04-29T00:29:42;93847.56;;;7.25;59.48
41690;BME280;27372;42.658;23.256;2023-04-29T00:32:08;93845.34;;;6.96;61.02
41690;BME280;27372;42.658;23.256;2023-04-29T00:34:33;93851.06;;;7.12;60.91
41690;BME280;27372;42.658;23.256;2023-04-29T00:36:59;93845.44;;;6.51;63.66
41690;BME280;27372;42.658;23.256;2023-04-29T00:39:24;93852.75;;;6.67;63.86
41690;BME280;27372;42.658;23.256;2023-04-29T00:41:50;93841.75;;;6.59;64.22
41690;BME280;27372;42.658;23.256;2023-04-29T00:44:16;93854.66;;;6.53;64.96
41690;BME280;27372;42.658;23.256;2023-04-29T00:46:41;93827.63;;;5.75;68.41
41690;BME280;27372;42.658;23.256;2023-04-29T00:49:07;93829.66;;;5.67;68.48
41690;BME280;27372;42.658;23.256;2023-04-29T00:51:33;93831.69;;;5.58;69.04
41690;BME280;27372;42.658;23.256;2023-04-29T00:54:00;93837.25;;;5.75;68.24
41690;BME280;27372;42.658;23.256;2023-04-29T00:56:28;93837.97;;;6.09;67.80
41690;BME280;27372;42.658;23.256;2023-04-29T00:58:57;93829.78;;;6.05;68.05
41690;BME280;27372;42.658;23.256;2023-04-29T01:01:22;93824.66;;;5.65;70.14
41690;BME280;27372;42.658;23.256;2023-04-29T01:03:49;93811.38;;;5.87;69.38
41690;BME280;27372;42.658;23.256;2023-04-29T01:11:10;93800.03;;;5.48;70.63
41690;BME280;27372;42.658;23.256;2023-04-29T01:13:43;93795.63;;;5.48;71.50
41690;BME280;27372;42.658;23.256;2023-04-29T01:16:20;93796.59;;;5.54;71.01
41690;BME280;27372;42.658;23.256;2023-04-29T01:18:57;93788.72;;;5.81;69.67
41690;BME280;27372;42.658;23.256;2023-04-29T01:21:24;93790.06;;;6.03;68.00
41690;BME280;27372;42.658;23.256;2023-04-29T01:23:49;93795.09;;;5.98;68.24
41690;BME280;27372;42.658;23.256;2023-04-29T01:26:21;93789.44;;;6.08;67.82
41690;BME280;27372;42.658;23.256;2023-04-29T01:29:19;93796.63;;;6.13;67.49
41690;BME280;27372;42.658;23.256;2023-04-29T01:31:59;93799.25;;;6.13;68.22
41690;BME280;27372;42.658;23.256;2023-04-29T01:37:40;93804.28;;;6.14;67.22
41690;BME280;27372;42.658;23.256;2023-04-29T01:40:23;93798.97;;;5.75;68.48
41690;BME280;27372;42.658;23.256;2023-04-29T01:43:01;93792.34;;;5.80;67.50
41690;BME280;27372;42.658;23.256;2023-04-29T01:45:29;93791.69;;;5.91;66.65
41690;BME280;27372;42.658;23.256;2023-04-29T01:47:56;93795.38;;;6.22;66.81
41690;BME280;27372;42.658;23.256;2023-04-29T01:50:22;93799.25;;;6.13;66.20
41690;BME280;27372;42.658;23.256;2023-04-29T01:52:48;93787.81;;;6.14;65.25
41690;BME280;27372;42.658;23.256;2023-04-29T01:55:13;93794.88;;;6.45;65.66
41690;BME280;27372;42.658;23.256;2023-04-29T01:57:39;93799.28;;;6.45;65.95
41690;BME280;27372;42.658;23.256;2023-04-29T02:00:05;93793.94;;;6.33;65.50
41690;BME280;27372;42.658;23.256;2023-04-29T02:02:30;93791.94;;;6.35;64.93
41690;BME280;27372;42.658;23.256;2023-04-29T02:04:55;93794.19;;;6.25;66.30
41690;BME280;27372;42.658;23.256;2023-04-29T02:07:22;93791.75;;;6.30;66.28
41690;BME280;27372;42.658;23.256;2023-04-29T02:09:47;93794.13;;;6.31;66.01
41690;BME280;27372;42.658;23.256;2023-04-29T02:12:13;93804.41;;;6.26;66.78
41690;BME280;27372;42.658;23.256;2023-04-29T02:14:38;93803.66;;;6.12;67.26
41690;BME280;27372;42.658;23.256;2023-04-29T02:17:04;93796.34;;;6.34;65.22
41690;BME280;27372;42.658;23.256;2023-04-29T02:19:29;93800.22;;;6.57;64.73
41690;BME280;27372;42.658;23.256;2023-04-29T02:21:55;93793.19;;;6.58;65.38
41690;BME280;27372;42.658;23.256;2023-04-29T02:24:20;93796.13;;;6.68;65.18
41690;BME280;27372;42.658;23.256;2023-04-29T02:26:46;93797.94;;;6.35;66.19
41690;BME280;27372;42.658;23.256;2023-04-29T02:29:11;93794.19;;;6.25;66.26
41690;BME280;27372;42.658;23.256;2023-04-29T02:31:36;93793.97;;;5.67;68.82
41690;BME280;27372;42.658;23.256;2023-04-29T02:34:02;93782.19;;;5.58;68.67
41690;BME280;27372;42.658;23.256;2023-04-29T02:36:28;93789.69;;;5.07;70.95
41690;BME280;27372;42.658;23.256;2023-04-29T02:38:54;93788.66;;;5.28;70.60
41690;BME280;27372;42.658;23.256;2023-04-29T02:41:20;93788.06;;;4.79;72.59
41690;BME280;27372;42.658;23.256;2023-04-29T02:43:46;93785.06;;;4.96;72.35
41690;BME280;27372;42.658;23.256;2023-04-29T02:46:13;93795.28;;;5.18;72.55
41690;BME280;27372;42.658;23.256;2023-04-29T02:48:39;93783.25;;;5.23;72.45
41690;BME280;27372;42.658;23.256;2023-04-29T02:51:04;93794.06;;;5.27;72.34
41690;BME280;27372;42.658;23.256;2023-04-29T02:53:30;93794.88;;;5.07;73.24
41690;BME280;27372;42.658;23.256;2023-04-29T02:55:56;93809.25;;;5.30;72.78
41690;BME280;27372;42.658;23.256;2023-04-29T02:58:22;93807.03;;;5.47;71.85
41690;BME280;27372;42.658;23.256;2023-04-29T03:00:47;93811.03;;;5.56;71.91
41690;BME280;27372;42.658;23.256;2023-04-29T03:03:13;93807.19;;;5.66;71.25
41690;BME280;27372;42.658;23.256;2023-04-29T03:05:38;93799.50;;;5.05;73.06
41690;BME280;27372;42.658;23.256;2023-04-29T03:08:04;93806.28;;;4.93;74.65
41690;BME280;27372;42.658;23.256;2023-04-29T03:10:29;93817.06;;;5.30;73.81
41690;BME280;27372;42.658;23.256;2023-04-29T03:12:55;93815.84;;;5.53;72.57
41690;BME280;27372;42.658;23.256;2023-04-29T03:15:20;93816.47;;;5.48;72.64
41690;BME280;27372;42.658;23.256;2023-04-29T03:17:45;93820.66;;;5.56;71.70
41690;BME280;27372;42.658;23.256;2023-04-29T03:20:11;93807.66;;;5.42;72.69
41690;BME280;27372;42.658;23.256;2023-04-29T03:22:37;93812.84;;;5.42;72.80
41690;BME280;27372;42.658;23.256;2023-04-29T03:25:03;93816.91;;;5.38;72.77
41690;BME280;27372;42.658;23.256;2023-04-29T03:27:28;93820.91;;;5.01;73.48
41690;BME280;27372;42.658;23.256;2023-04-29T03:29:53;93834.66;;;4.47;76.65
41690;BME280;27372;42.658;23.256;2023-04-29T03:32:19;93838.09;;;4.68;76.54
41690;BME280;27372;42.658;23.256;2023-04-29T03:34:44;93823.91;;;4.71;76.40
41690;BME280;27372;42.658;23.256;2023-04-29T03:37:10;93843.13;;;4.83;75.55
41690;BME280;27372;42.658;23.256;2023-04-29T03:39:35;93847.75;;;4.88;74.78
41690;BME280;27372;42.658;23.256;2023-04-29T03:42:01;93835.31;;;4.70;75.91
41690;BME280;27372;42.658;23.256;2023-04-29T03:44:27;93834.91;;;4.66;77.04
41690;BME280;27372;42.658;23.256;2023-04-29T03:46:53;93824.28;;;4.61;76.60
41690;BME280;27372;42.658;23.256;2023-04-29T03:49:19;93827.13;;;4.73;76.17
41690;BME280;27372;42.658;23.256;2023-04-29T03:51:44;93826.88;;;4.61;76.50
41690;BME280;27372;42.658;23.256;2023-04-29T03:54:11;93824.91;;;4.76;75.45
41690;BME280;27372;42.658;23.256;2023-04-29T03:56:36;93820.69;;;4.89;75.17
41690;BME280;27372;42.658;23.256;2023-04-29T03:59:01;93831.09;;;4.89;75.05
41690;BME280;27372;42.658;23.256;2023-04-29T04:01:27;93826.91;;;5.28;75.35
41690;BME280;27372;42.658;23.256;2023-04-29T04:03:52;93844.50;;;5.59;74.83
41690;BME280;27372;42.658;23.256;2023-04-29T04:06:17;93836.31;;;5.36;75.06
41690;BME280;27372;42.658;23.256;2023-04-29T04:08:43;93846.34;;;5.19;75.75
41690;BME280;27372;42.658;23.256;2023-04-29T04:11:08;93843.94;;;5.04;76.94
41690;BME280;27372;42.658;23.256;2023-04-29T04:13:34;93845.50;;;5.45;76.05
41690;BME280;27372;42.658;23.256;2023-04-29T04:16:01;93850.47;;;5.73;74.88
41690;BME280;27372;42.658;23.256;2023-04-29T04:18:26;93838.22;;;5.81;74.98
41690;BME280;27372;42.658;23.256;2023-04-29T04:20:51;93841.22;;;5.91;74.23
41690;BME280;27372;42.658;23.256;2023-04-29T04:23:17;93837.81;;;6.04;72.49
41690;BME280;27372;42.658;23.256;2023-04-29T04:25:48;93842.16;;;6.17;72.41
41690;BME280;27372;42.658;23.256;2023-04-29T04:28:14;93841.31;;;6.23;72.07
41690;BME280;27372;42.658;23.256;2023-04-29T04:30:40;93839.06;;;6.33;72.12
41690;BME280;27372;42.658;23.256;2023-04-29T04:33:05;93834.44;;;6.42;70.64
41690;BME280;27372;42.658;23.256;2023-04-29T04:35:31;93841.13;;;6.63;69.70
41690;BME280;27372;42.658;23.256;2023-04-29T04:37:56;93831.66;;;6.69;67.86
41690;BME280;27372;42.658;23.256;2023-04-29T04:40:22;93837.59;;;6.83;68.26
41690;BME280;27372;42.658;23.256;2023-04-29T04:42:48;93852.38;;;6.96;69.04
41690;BME280;27372;42.658;23.256;2023-04-29T04:45:13;93850.47;;;7.10;69.20
41690;BME280;27372;42.658;23.256;2023-04-29T04:47:40;93850.94;;;7.00;68.63
41690;BME280;27372;42.658;23.256;2023-04-29T04:50:07;93854.06;;;7.15;67.72
41690;BME280;27372;42.658;23.256;2023-04-29T04:52:33;93850.94;;;7.00;68.24
41690;BME280;27372;42.658;23.256;2023-04-29T04:54:58;93850.66;;;7.08;68.88
41690;BME280;27372;42.658;23.256;2023-04-29T04:57:24;93839.75;;;7.18;69.21
41690;BME280;27372;42.658;23.256;2023-04-29T04:59:49;93832.66;;;7.51;68.45
41690;BME280;27372;42.658;23.256;2023-04-29T05:02:15;93830.22;;;7.74;67.05
41690;BME280;27372;42.658;23.256;2023-04-29T05:04:41;93826.53;;;7.82;66.49
41690;BME280;27372;42.658;23.256;2023-04-29T05:07:06;93830.22;;;7.93;65.60
41690;BME280;27372;42.658;23.256;2023-04-29T05:09:31;93826.66;;;8.06;64.77
41690;BME280;27372;42.658;23.256;2023-04-29T05:11:57;93834.03;;;8.28;63.83
41690;BME280;27372;42.658;23.256;2023-04-29T05:14:24;93820.31;;;8.32;62.91
41690;BME280;27372;42.658;23.256;2023-04-29T05:16:52;93812.09;;;8.47;63.46
41690;BME280;27372;42.658;23.256;2023-04-29T05:19:18;93808.44;;;8.48;61.46
41690;BME280;27372;42.658;23.256;2023-04-29T05:21:44;93811.09;;;8.30;61.96
41690;BME280;27372;42.658;23.256;2023-04-29T05:24:21;93805.88;;;8.60;68.67
41690;BME280;27372;42.658;23.256;2023-04-29T05:26:47;93815.53;;;10.50;98.44
41690;BME280;27372;42.658;23.256;2023-04-29T05:29:15;93817.63;;;9.83;75.87
41690;BME280;27372;42.658;23.256;2023-04-29T05:31:41;93812.72;;;9.87;63.34
41690;BME280;27372;42.658;23.256;2023-04-29T05:34:06;93809.53;;;9.85;61.46
41690;BME280;27372;42.658;23.256;2023-04-29T05:36:32;93815.78;;;9.95;60.54
41690;BME280;27372;42.658;23.256;2023-04-29T05:38:57;93816.63;;;9.72;61.24
41690;BME280;27372;42.658;23.256;2023-04-29T05:41:26;93804.53;;;9.71;61.34
41690;BME280;27372;42.658;23.256;2023-04-29T05:43:51;93815.81;;;9.60;61.37
41690;BME280;27372;42.658;23.256;2023-04-29T05:46:20;93815.03;;;9.36;61.22
41690;BME280;27372;42.658;23.256;2023-04-29T05:48:47;93810.56;;;9.60;60.20
41690;BME280;27372;42.658;23.256;2023-04-29T05:51:12;93819.69;;;9.69;60.62
41690;BME280;27372;42.658;23.256;2023-04-29T05:53:38;93825.53;;;8.81;62.14
41690;BME280;27372;42.658;23.256;2023-04-29T05:56:05;93812.66;;;8.49;64.66
41690;BME280;27372;42.658;23.256;2023-04-29T05:58:33;93819.44;;;9.23;62.67
41690;BME280;27372;42.658;23.256;2023-04-29T06:00:59;93831.31;;;9.26;60.83
41690;BME280;27372;42.658;23.256;2023-04-29T06:03:24;93813.66;;;9.57;61.52
41690;BME280;27372;42.658;23.256;2023-04-29T06:05:52;93829.56;;;10.03;59.56
41690;BME280;27372;42.658;23.256;2023-04-29T06:08:18;93822.81;;;10.19;59.10
41690;BME280;27372;42.658;23.256;2023-04-29T06:10:44;93816.38;;;10.38;58.97
41690;BME280;27372;42.658;23.256;2023-04-29T06:13:10;93803.81;;;10.69;56.87
41690;BME280;27372;42.658;23.256;2023-04-29T06:15:35;93806.63;;;10.80;54.61
41690;BME280;27372;42.658;23.256;2023-04-29T06:18:01;93819.44;;;10.76;55.36
41690;BME280;27372;42.658;23.256;2023-04-29T06:20:27;93816.28;;;10.33;55.94
41690;BME280;27372;42.658;23.256;2023-04-29T06:22:52;93823.22;;;10.68;55.17
41690;BME280;27372;42.658;23.256;2023-04-29T06:25:18;93817.88;;;10.34;56.83
41690;BME280;27372;42.658;23.256;2023-04-29T06:27:43;93821.47;;;10.57;55.73
41690;BME280;27372;42.658;23.256;2023-04-29T06:30:09;93830.66;;;10.71;56.10
41690;BME280;27372;42.658;23.256;2023-04-29T06:32:36;93833.78;;;10.56;55.91
41690;BME280;27372;42.658;23.256;2023-04-29T06:35:01;93830.13;;;10.86;55.51
41690;BME280;27372;42.658;23.256;2023-04-29T06:37:27;93821.81;;;10.61;55.47
41690;BME280;27372;42.658;23.256;2023-04-29T06:39:52;93828.59;;;10.74;54.55
41690;BME280;27372;42.658;23.256;2023-04-29T06:42:18;93817.69;;;10.82;54.35
41690;BME280;27372;42.658;23.256;2023-04-29T06:44:43;93829.72;;;10.78;54.05
41690;BME280;27372;42.658;23.256;2023-04-29T06:47:09;93834.97;;;10.78;54.23
41690;BME280;27372;42.658;23.256;2023-04-29T06:49:34;93825.72;;;10.75;53.78
41690;BME280;27372;42.658;23.256;2023-04-29T06:52:00;93821.03;;;10.77;55.09
41690;BME280;27372;42.658;23.256;2023-04-29T06:54:26;93808.31;;;10.86;54.97
41690;BME280;27372;42.658;23.256;2023-04-29T06:56:52;93826.81;;;11.08;53.35
41690;BME280;27372;42.658;23.256;2023-04-29T06:59:18;93818.38;;;11.23;52.34
41690;BME280;27372;42.658;23.256;2023-04-29T07:01:43;93824.97;;;11.26;52.12
41690;BME280;27372;42.658;23.256;2023-04-29T07:04:09;93817.41;;;10.95;54.41
41690;BME280;27372;42.658;23.256;2023-04-29T07:06:34;93830.94;;;11.04;54.81
41690;BME280;27372;42.658;23.256;2023-04-29T07:09:01;93814.72;;;11.41;53.84
41690;BME280;27372;42.658;23.256;2023-04-29T07:11:26;93820.84;;;11.47;52.36
41690;BME280;27372;42.658;23.256;2023-04-29T07:13:52;93807.28;;;11.21;52.40
41690;BME280;27372;42.658;23.256;2023-04-29T07:16:17;93821.69;;;11.01;52.88
41690;BME280;27372;42.658;23.256;2023-04-29T07:18:46;93807.41;;;11.26;50.69
41690;BME280;27372;42.658;23.256;2023-04-29T07:21:12;93801.16;;;11.49;51.21
41690;BME280;27372;42.658;23.256;2023-04-29T07:23:37;93815.31;;;11.65;52.29
41690;BME280;27372;42.658;23.256;2023-04-29T07:26:11;93801.41;;;11.87;51.94
41690;BME280;27372;42.658;23.256;2023-04-29T07:28:42;93810.44;;;12.36;48.71
41690;BME280;27372;42.658;23.256;2023-04-29T07:31:08;93812.53;;;12.83;48.36
41690;BME280;27372;42.658;23.256;2023-04-29T07:33:34;93805.31;;;13.01;48.03
41690;BME280;27372;42.658;23.256;2023-04-29T07:36:00;93802.41;;;13.02;48.13
41690;BME280;27372;42.658;23.256;2023-04-29T07:38:26;93810.44;;;12.85;47.35
41690;BME280;27372;42.658;23.256;2023-04-29T07:40:51;93798.56;;;13.15;46.55
41690;BME280;27372;42.658;23.256;2023-04-29T07:43:17;93805.50;;;13.54;44.73
41690;BME280;27372;42.658;23.256;2023-04-29T07:45:42;93800.59;;;13.73;44.93
41690;BME280;27372;42.658;23.256;2023-04-29T07:48:08;93789.69;;;14.07;45.01
41690;BME280;27372;42.658;23.256;2023-04-29T07:50:33;93790.81;;;14.27;43.50
41690;BME280;27372;42.658;23.256;2023-04-29T07:52:59;93796.19;;;14.58;41.98
41690;BME280;27372;42.658;23.256;2023-04-29T07:55:26;93778.69;;;14.31;41.59
41690;BME280;27372;42.658;23.256;2023-04-29T07:57:52;93787.59;;;14.88;41.14
41690;BME280;27372;42.658;23.256;2023-04-29T08:00:17;93782.84;;;15.16;40.10
41690;BME280;27372;42.658;23.256;2023-04-29T08:02:43;93766.41;;;15.61;39.33
41690;BME280;27372;42.658;23.256;2023-04-29T08:05:09;93773.22;;;15.98;37.96
41690;BME280;27372;42.658;23.256;2023-04-29T08:07:35;93774.31;;;15.87;39.25
41690;BME280;27372;42.658;23.256;2023-04-29T08:10:00;93786.50;;;15.67;39.65
41690;BME280;27372;42.658;23.256;2023-04-29T08:16:07;93787.50;;;16.12;39.02
41690;BME280;27372;42.658;23.256;2023-04-29T08:22:06;93773.06;;;16.39;38.59
41690;BME280;27372;42.658;23.256;2023-04-29T08:24:41;93770.84;;;16.62;37.94
41690;BME280;27372;42.658;23.256;2023-04-29T08:27:07;93779.97;;;16.85;37.96
41690;BME280;27372;42.658;23.256;2023-04-29T08:29:33;93763.59;;;16.78;36.98
41690;BME280;27372;42.658;23.256;2023-04-29T08:31:59;93772.13;;;17.44;35.23
41690;BME280;27372;42.658;23.256;2023-04-29T08:34:24;93771.91;;;17.70;35.41
41690;BME280;27372;42.658;23.256;2023-04-29T08:36:52;93774.34;;;17.37;35.48
41690;BME280;27372;42.658;23.256;2023-04-29T08:39:17;93766.13;;;17.63;34.42
41690;BME280;27372;42.658;23.256;2023-04-29T08:41:42;93761.13;;;17.85;34.14
41690;BME280;27372;42.658;23.256;2023-04-29T08:44:13;93759.56;;;18.09;35.41
41690;BME280;27372;42.658;23.256;2023-04-29T08:46:42;93761.25;;;18.24;33.80
41690;BME280;27372;42.658;23.256;2023-04-29T08:49:10;93753.13;;;18.15;33.83
41690;BME280;27372;42.658;23.256;2023-04-29T08:51:37;93754.13;;;18.19;33.08
41690;BME280;27372;42.658;23.256;2023-04-29T08:54:03;93750.59;;;18.67;32.49
41690;BME280;27372;42.658;23.256;2023-04-29T08:56:31;93747.41;;;17.78;33.00
41690;BME280;27372;42.658;23.256;2023-04-29T08:58:58;93747.13;;;18.04;33.96
41690;BME280;27372;42.658;23.256;2023-04-29T09:01:28;93755.91;;;18.29;34.44
41690;BME280;27372;42.658;23.256;2023-04-29T09:04:29;93747.72;;;18.83;33.31
41690;BME280;27372;42.658;23.256;2023-04-29T09:06:57;93751.84;;;19.13;32.95
41690;BME280;27372;42.658;23.256;2023-04-29T09:09:23;93740.22;;;19.56;31.80
41690;BME280;27372;42.658;23.256;2023-04-29T09:11:49;93748.47;;;20.01;31.13
41690;BME280;27372;42.658;23.256;2023-04-29T09:14:19;93749.88;;;20.13;31.97
41690;BME280;27372;42.658;23.256;2023-04-29T09:16:45;93755.59;;;20.06;29.93
41690;BME280;27372;42.658;23.256;2023-04-29T09:19:30;93740.16;;;19.28;30.94
41690;BME280;27372;42.658;23.256;2023-04-29T09:22:00;93753.94;;;19.63;31.76
41690;BME280;27372;42.658;23.256;2023-04-29T09:24:26;93737.41;;;19.00;33.47
41690;BME280;27372;42.658;23.256;2023-04-29T09:26:53;93741.31;;;19.22;32.80
41690;BME280;27372;42.658;23.256;2023-04-29T09:29:19;93729.84;;;19.40;31.85
41690;BME280;27372;42.658;23.256;2023-04-29T09:31:45;93737.81;;;20.15;30.19
41690;BME280;27372;42.658;23.256;2023-04-29T09:34:12;93736.75;;;19.55;31.23
41690;BME280;27372;42.658;23.256;2023-04-29T09:39:21;93725.25;;;19.27;31.85
41690;BME280;27372;42.658;23.256;2023-04-29T09:41:57;93724.00;;;19.85;31.12
41690;BME280;27372;42.658;23.256;2023-04-29T09:44:34;93719.16;;;20.15;29.77
41690;BME280;27372;42.658;23.256;2023-04-29T09:47:07;93719.47;;;20.14;30.57
41690;BME280;27372;42.658;23.256;2023-04-29T09:49:43;93716.44;;;19.60;29.88
41690;BME280;27372;42.658;23.256;2023-04-29T09:52:15;93709.34;;;19.69;29.99
41690;BME280;27372;42.658;23.256;2023-04-29T09:54:45;93713.19;;;19.49;30.65
41690;BME280;27372;42.658;23.256;2023-04-29T09:57:12;93703.47;;;19.86;31.39
41690;BME280;27372;42.658;23.256;2023-04-29T09:59:40;93704.97;;;20.06;29.78
41690;BME280;27372;42.658;23.256;2023-04-29T10:02:12;93709.06;;;20.26;29.93
41690;BME280;27372;42.658;23.256;2023-04-29T10:04:40;93699.38;;;19.61;31.12
41690;BME280;27372;42.658;23.256;2023-04-29T10:07:07;93711.16;;;19.27;30.92
41690;BME280;27372;42.658;23.256;2023-04-29T10:09:33;93696.31;;;19.53;31.23
41690;BME280;27372;42.658;23.256;2023-04-29T10:12:03;93693.09;;;19.70;31.24
41690;BME280;27372;42.658;23.256;2023-04-29T10:14:33;93680.38;;;19.95;31.31
41690;BME280;27372;42.658;23.256;2023-04-29T10:17:15;93686.06;;;19.47;31.88
41690;BME280;27372;42.658;23.256;2023-04-29T10:20:04;93691.72;;;18.93;32.41
41690;BME280;27372;42.658;23.256;2023-04-29T10:22:45;93686.78;;;18.67;32.70
41690;BME280;27372;42.658;23.256;2023-04-29T10:25:12;93678.16;;;18.37;34.16
41690;BME280;27372;42.658;23.256;2023-04-29T10:27:41;93685.91;;;18.14;35.45
41690;BME280;27372;42.658;23.256;2023-04-29T10:30:11;93683.81;;;18.88;33.65
41690;BME280;27372;42.658;23.256;2023-04-29T10:32:39;93682.47;;;19.23;32.40
41690;BME280;27372;42.658;23.256;2023-04-29T10:35:10;93670.97;;;19.70;31.71
41690;BME280;27372;42.658;23.256;2023-04-29T10:37:44;93673.97;;;19.96;32.15
41690;BME280;27372;42.658;23.256;2023-04-29T10:40:35;93676.59;;;19.40;32.76
41690;BME280;27372;42.658;23.256;2023-04-29T10:43:04;93676.72;;;18.26;33.31
41690;BME280;27372;42.658;23.256;2023-04-29T10:45:31;93676.72;;;18.26;33.11
41690;BME280;27372;42.658;23.256;2023-04-29T10:50:58;93663.00;;;19.84;32.28
41690;BME280;27372;42.658;23.256;2023-04-29T10:53:26;93654.72;;;19.85;31.99
41690;BME280;27372;42.658;23.256;2023-04-29T10:56:07;93660.41;;;20.21;30.88
41690;BME280;27372;42.658;23.256;2023-04-29T11:01:00;93670.66;;;19.44;31.27
41690;BME280;27372;42.658;23.256;2023-04-29T11:03:55;93661.97;;;20.22;30.62
41690;BME280;27372;42.658;23.256;2023-04-29T11:06:45;93669.19;;;20.21;30.68
41690;BME280;27372;42.658;23.256;2023-04-29T11:09:20;93652.88;;;19.25;31.79
41690;BME280;27372;42.658;23.256;2023-04-29T11:12:07;93673.03;;;19.59;31.54
41690;BME280;27372;42.658;23.256;2023-04-29T11:14:48;93659.75;;;19.87;29.88
41690;BME280;27372;42.658;23.256;2023-04-29T11:17:18;93655.13;;;19.93;30.95
41690;BME280;27372;42.658;23.256;2023-04-29T11:19:46;93653.59;;;19.31;30.32
41690;BME280;27372;42.658;23.256;2023-04-29T11:24:59;93666.75;;;19.83;29.75
41690;BME280;27372;42.658;23.256;2023-04-29T11:27:29;93666.78;;;18.89;32.29
41690;BME280;27372;42.658;23.256;2023-04-29T11:29:56;93661.72;;;19.06;31.59
41690;BME280;27372;42.658;23.256;2023-04-29T11:32:29;93652.91;;;18.92;30.15
41690;BME280;27372;42.658;23.256;2023-04-29T11:35:09;93649.22;;;18.88;30.05
41690;BME280;27372;42.658;23.256;2023-04-29T11:37:35;93645.88;;;18.63;30.04
41690;BME280;27372;42.658;23.256;2023-04-29T11:40:01;93645.81;;;18.68;30.48
41690;BME280;27372;42.658;23.256;2023-04-29T11:42:27;93650.63;;;18.09;29.99
41690;BME280;27372;42.658;23.256;2023-04-29T11:44:56;93651.44;;;18.28;30.04
41690;BME280;27372;42.658;23.256;2023-04-29T11:47:28;93648.34;;;18.21;29.86
41690;BME280;27372;42.658;23.256;2023-04-29T11:50:05;93651.72;;;17.83;30.93
41690;BME280;27372;42.658;23.256;2023-04-29T11:52:32;93652.25;;;17.61;29.72
41690;BME280;27372;42.658;23.256;2023-04-29T11:54:58;93648.28;;;18.07;30.64
41690;BME280;27372;42.658;23.256;2023-04-29T11:57:29;93652.16;;;17.91;31.58
41690;BME280;27372;42.658;23.256;2023-04-29T11:59:59;93646.34;;;17.89;32.21
41690;BME280;27372;42.658;23.256;2023-04-29T12:02:32;93650.00;;;17.98;31.71
41690;BME280;27372;42.658;23.256;2023-04-29T12:05:07;93635.38;;;17.95;32.92
41690;BME280;27372;42.658;23.256;2023-04-29T12:07:33;93643.81;;;18.22;33.31
41690;BME280;27372;42.658;23.256;2023-04-29T12:09:59;93643.97;;;18.30;31.72
41690;BME280;27372;42.658;23.256;2023-04-29T12:12:25;93652.16;;;18.34;33.01
41690;BME280;27372;42.658;23.256;2023-04-29T12:14:58;93639.06;;;18.38;34.42
41690;BME280;27372;42.658;23.256;2023-04-29T12:17:23;93644.69;;;18.36;33.54
41690;BME280;27372;42.658;23.256;2023-04-29T12:19:49;93647.44;;;18.31;33.95
41690;BME280;27372;42.658;23.256;2023-04-29T12:22:14;93646.63;;;18.50;33.08
41690;BME280;27372;42.658;23.256;2023-04-29T12:24:40;93641.81;;;18.33;32.48
41690;BME280;27372;42.658;23.256;2023-04-29T12:27:09;93634.31;;;17.96;32.84
41690;BME280;27372;42.658;23.256;2023-04-29T12:29:35;93629.50;;;17.98;33.39
41690;BME280;27372;42.658;23.256;2023-04-29T12:32:01;93632.25;;;18.31;32.56
41690;BME280;27372;42.658;23.256;2023-04-29T12:34:30;93636.00;;;18.83;58.15
41690;BME280;27372;42.658;23.256;2023-04-29T12:37:02;93626.28;;;19.39;57.44
41690;BME280;27372;42.658;23.256;2023-04-29T12:39:29;93627.50;;;19.89;59.63
41690;BME280;27372;42.658;23.256;2023-04-29T12:41:59;93619.81;;;20.24;57.39
41690;BME280;27372;42.658;23.256;2023-04-29T12:44:26;93623.06;;;20.35;58.76
41690;BME280;27372;42.658;23.256;2023-04-29T12:47:07;93609.91;;;20.38;52.80
41690;BME280;27372;42.658;23.256;2023-04-29T12:49:33;93616.34;;;20.60;55.69
41690;BME280;27372;42.658;23.256;2023-04-29T12:51:58;93617.69;;;20.94;56.87
41690;BME280;27372;42.658;23.256;2023-04-29T12:54:58;93621.66;;;21.37;56.59
41690;BME280;27372;42.658;23.256;2023-04-29T12:57:45;93603.84;;;20.46;33.05
41690;BME280;27372;42.658;23.256;2023-04-29T13:00:23;93619.09;;;20.32;52.13
41690;BME280;27372;42.658;23.256;2023-04-29T13:02:49;93618.56;;;20.67;56.85
41690;BME280;27372;42.658;23.256;2023-04-29T13:05:14;93616.91;;;20.93;51.96
41690;BME280;27372;42.658;23.256;2023-04-29T13:07:40;93625.28;;;20.78;34.53
41690;BME280;27372;42.658;23.256;2023-04-29T13:10:12;93606.75;;;21.04;37.90
41690;BME280;27372;42.658;23.256;2023-04-29T13:12:38;93612.75;;;20.78;49.54
41690;BME280;27372;42.658;23.256;2023-04-29T13:15:06;93611.31;;;21.35;55.91
41690;BME280;27372;42.658;23.256;2023-04-29T13:17:34;93614.84;;;21.53;39.45
41690;BME280;27372;42.658;23.256;2023-04-29T13:20:01;93605.81;;;21.00;32.42
41690;BME280;27372;42.658;23.256;2023-04-29T13:22:26;93598.59;;;19.68;38.18
41690;BME280;27372;42.658;23.256;2023-04-29T13:24:52;93600.94;;;19.69;35.63